sensor_id;sensor_type;location;lat;lon;timestamp;temperature;humidity
72128;DHT22;60000;51.030;7.024;2022-10-31T00:00:28;12.22;86.60
72128;DHT22;60000;51.030;7.024;2022-10-31T00:02:53;12.19;86.60
72128;DHT22;60000;51.030;7.024;2022-10-31T00:05:19;12.22;86.58
72128;DHT22;60000;51.030;7.024;2022-10-31T00:07:44;12.21;86.63
72128;DHT22;60000;51.030;7.024;2022-10-31T00:10:09;12.16;86.79
72128;DHT22;60000;51.030;7.024;2022-10-31T00:12:35;12.15;86.67
72128;DHT22;60000;51.030;7.024;2022-10-31T00:15:00;12.15;86.74
72128;DHT22;60000;51.030;7.024;2022-10-31T00:17:25;12.14;86.80
72128;DHT22;60000;51.030;7.024;2022-10-31T00:19:51;12.14;86.86
72128;DHT22;60000;51.030;7.024;2022-10-31T00:22:16;12.11;86.86
72128;DHT22;60000;51.030;7.024;2022-10-31T00:24:41;12.08;86.77
72128;DHT22;60000;51.030;7.024;2022-10-31T00:27:07;12.05;86.72
72128;DHT22;60000;51.030;7.024;2022-10-31T00:29:32;12.05;86.96
72128;DHT22;60000;51.030;7.024;2022-10-31T00:31:58;12.02;87.05
72128;DHT22;60000;51.030;7.024;2022-10-31T00:34:23;12.02;87.10
72128;DHT22;60000;51.030;7.024;2022-10-31T00:36:48;12.01;87.03
72128;DHT22;60000;51.030;7.024;2022-10-31T00:39:13;12.01;87.13
72128;DHT22;60000;51.030;7.024;2022-10-31T00:41:39;11.99;87.11
72128;DHT22;60000;51.030;7.024;2022-10-31T00:44:04;12.04;87.23
72128;DHT22;60000;51.030;7.024;2022-10-31T00:46:29;12.05;87.38
72128;DHT22;60000;51.030;7.024;2022-10-31T00:48:55;12.04;87.39
72128;DHT22;60000;51.030;7.024;2022-10-31T00:51:20;12.02;87.32
72128;DHT22;60000;51.030;7.024;2022-10-31T00:53:45;12.02;87.19
72128;DHT22;60000;51.030;7.024;2022-10-31T00:56:11;12.02;87.26
72128;DHT22;60000;51.030;7.024;2022-10-31T00:58:36;11.98;87.22
72128;DHT22;60000;51.030;7.024;2022-10-31T01:01:02;11.95;87.29
72128;DHT22;60000;51.030;7.024;2022-10-31T01:03:31;11.94;87.39
72128;DHT22;60000;51.030;7.024;2022-10-31T01:06:01;11.95;87.57
72128;DHT22;60000;51.030;7.024;2022-10-31T01:08:27;11.95;87.56
72128;DHT22;60000;51.030;7.024;2022-10-31T01:13:38;11.89;87.57
72128;DHT22;60000;51.030;7.024;2022-10-31T01:16:05;11.91;87.87
72128;DHT22;60000;51.030;7.024;2022-10-31T01:18:31;11.91;87.84
72128;DHT22;60000;51.030;7.024;2022-10-31T01:21:07;11.91;87.82
72128;DHT22;60000;51.030;7.024;2022-10-31T01:23:32;11.89;87.98
72128;DHT22;60000;51.030;7.024;2022-10-31T01:26:19;11.88;87.91
72128;DHT22;60000;51.030;7.024;2022-10-31T01:28:49;11.91;88.09
72128;DHT22;60000;51.030;7.024;2022-10-31T01:31:16;11.88;88.03
72128;DHT22;60000;51.030;7.024;2022-10-31T01:33:42;11.89;87.88
72128;DHT22;60000;51.030;7.024;2022-10-31T01:36:32;11.88;87.76
72128;DHT22;60000;51.030;7.024;2022-10-31T01:38:59;11.84;87.85
72128;DHT22;60000;51.030;7.024;2022-10-31T01:41:27;11.84;87.78
72128;DHT22;60000;51.030;7.024;2022-10-31T01:43:55;11.81;87.84
72128;DHT22;60000;51.030;7.024;2022-10-31T01:46:35;11.79;87.82
72128;DHT22;60000;51.030;7.024;2022-10-31T01:49:04;11.79;87.91
72128;DHT22;60000;51.030;7.024;2022-10-31T01:51:33;11.77;87.92
72128;DHT22;60000;51.030;7.024;2022-10-31T01:54:04;11.75;87.84
72128;DHT22;60000;51.030;7.024;2022-10-31T01:56:31;11.74;87.66
72128;DHT22;60000;51.030;7.024;2022-10-31T01:58:59;11.71;87.97
72128;DHT22;60000;51.030;7.024;2022-10-31T02:01:27;11.74;87.94
72128;DHT22;60000;51.030;7.024;2022-10-31T02:03:53;11.71;88.02
72128;DHT22;60000;51.030;7.024;2022-10-31T02:08:55;11.66;88.09
72128;DHT22;60000;51.030;7.024;2022-10-31T02:11:22;11.66;88.12
72128;DHT22;60000;51.030;7.024;2022-10-31T02:13:47;11.63;88.04
72128;DHT22;60000;51.030;7.024;2022-10-31T02:16:13;11.64;88.23
72128;DHT22;60000;51.030;7.024;2022-10-31T02:18:38;11.63;88.35
72128;DHT22;60000;51.030;7.024;2022-10-31T02:21:15;11.61;88.29
72128;DHT22;60000;51.030;7.024;2022-10-31T02:26:54;11.57;87.99
72128;DHT22;60000;51.030;7.024;2022-10-31T02:29:43;11.56;87.96
72128;DHT22;60000;51.030;7.024;2022-10-31T02:35:13;11.48;87.89
72128;DHT22;60000;51.030;7.024;2022-10-31T02:38:36;11.43;87.79
72128;DHT22;60000;51.030;7.024;2022-10-31T02:41:34;11.36;87.73
72128;DHT22;60000;51.030;7.024;2022-10-31T02:49:32;11.30;88.36
72128;DHT22;60000;51.030;7.024;2022-10-31T02:51:57;11.30;88.60
72128;DHT22;60000;51.030;7.024;2022-10-31T02:54:25;11.30;88.58
72128;DHT22;60000;51.030;7.024;2022-10-31T02:56:56;11.27;88.47
72128;DHT22;60000;51.030;7.024;2022-10-31T02:59:23;11.24;88.51
72128;DHT22;60000;51.030;7.024;2022-10-31T03:02:00;11.22;88.65
72128;DHT22;60000;51.030;7.024;2022-10-31T03:04:39;11.20;88.83
72128;DHT22;60000;51.030;7.024;2022-10-31T03:07:25;11.20;89.02
72128;DHT22;60000;51.030;7.024;2022-10-31T03:10:05;11.19;89.10
72128;DHT22;60000;51.030;7.024;2022-10-31T03:12:40;11.19;89.24
72128;DHT22;60000;51.030;7.024;2022-10-31T03:15:25;11.19;89.34
72128;DHT22;60000;51.030;7.024;2022-10-31T03:18:08;11.19;89.50
72128;DHT22;60000;51.030;7.024;2022-10-31T03:20:40;11.19;89.45
72128;DHT22;60000;51.030;7.024;2022-10-31T03:23:11;11.19;89.42
72128;DHT22;60000;51.030;7.024;2022-10-31T03:25:39;11.17;89.43
72128;DHT22;60000;51.030;7.024;2022-10-31T03:28:05;11.17;89.43
72128;DHT22;60000;51.030;7.024;2022-10-31T03:30:33;11.17;89.42
72128;DHT22;60000;51.030;7.024;2022-10-31T03:33:03;11.17;89.51
72128;DHT22;60000;51.030;7.024;2022-10-31T03:35:30;11.17;89.54
72128;DHT22;60000;51.030;7.024;2022-10-31T03:37:59;11.16;89.58
72128;DHT22;60000;51.030;7.024;2022-10-31T03:40:26;11.17;89.52
72128;DHT22;60000;51.030;7.024;2022-10-31T03:42:56;11.19;89.49
72128;DHT22;60000;51.030;7.024;2022-10-31T03:45:28;11.19;89.55
72128;DHT22;60000;51.030;7.024;2022-10-31T03:47:55;11.20;89.69
72128;DHT22;60000;51.030;7.024;2022-10-31T03:50:23;11.19;89.61
72128;DHT22;60000;51.030;7.024;2022-10-31T03:52:55;11.22;89.70
72128;DHT22;60000;51.030;7.024;2022-10-31T03:55:28;11.20;89.59
72128;DHT22;60000;51.030;7.024;2022-10-31T03:58:01;11.20;89.67
72128;DHT22;60000;51.030;7.024;2022-10-31T04:00:29;11.22;89.77
72128;DHT22;60000;51.030;7.024;2022-10-31T04:03:35;11.20;89.73
72128;DHT22;60000;51.030;7.024;2022-10-31T04:06:05;11.20;89.73
72128;DHT22;60000;51.030;7.024;2022-10-31T04:08:33;11.20;89.67
72128;DHT22;60000;51.030;7.024;2022-10-31T04:11:02;11.19;89.72
72128;DHT22;60000;51.030;7.024;2022-10-31T04:13:31;11.22;89.80
72128;DHT22;60000;51.030;7.024;2022-10-31T04:15:58;11.22;89.81
72128;DHT22;60000;51.030;7.024;2022-10-31T04:18:24;11.22;89.91
72128;DHT22;60000;51.030;7.024;2022-10-31T04:20:59;11.24;89.87
72128;DHT22;60000;51.030;7.024;2022-10-31T04:23:25;11.24;89.90
72128;DHT22;60000;51.030;7.024;2022-10-31T04:25:51;11.27;89.83
72128;DHT22;60000;51.030;7.024;2022-10-31T04:28:16;11.24;89.83
72128;DHT22;60000;51.030;7.024;2022-10-31T04:30:41;11.27;89.90
72128;DHT22;60000;51.030;7.024;2022-10-31T04:33:07;11.26;89.74
72128;DHT22;60000;51.030;7.024;2022-10-31T04:35:32;11.22;89.69
72128;DHT22;60000;51.030;7.024;2022-10-31T04:37:57;11.23;89.68
72128;DHT22;60000;51.030;7.024;2022-10-31T04:40:23;11.22;89.49
72128;DHT22;60000;51.030;7.024;2022-10-31T04:42:48;11.15;89.45
72128;DHT22;60000;51.030;7.024;2022-10-31T04:45:13;11.17;89.71
72128;DHT22;60000;51.030;7.024;2022-10-31T04:47:39;11.15;89.84
72128;DHT22;60000;51.030;7.024;2022-10-31T04:50:04;11.16;89.96
72128;DHT22;60000;51.030;7.024;2022-10-31T04:52:30;11.17;89.98
72128;DHT22;60000;51.030;7.024;2022-10-31T04:54:55;11.16;89.99
72128;DHT22;60000;51.030;7.024;2022-10-31T04:57:20;11.17;89.95
72128;DHT22;60000;51.030;7.024;2022-10-31T04:59:46;11.13;89.95
72128;DHT22;60000;51.030;7.024;2022-10-31T05:02:11;11.10;90.03
72128;DHT22;60000;51.030;7.024;2022-10-31T05:04:36;11.13;90.09
72128;DHT22;60000;51.030;7.024;2022-10-31T05:07:01;11.13;90.15
72128;DHT22;60000;51.030;7.024;2022-10-31T05:09:27;11.15;90.19
72128;DHT22;60000;51.030;7.024;2022-10-31T05:11:52;11.15;90.15
72128;DHT22;60000;51.030;7.024;2022-10-31T05:14:17;11.16;90.21
72128;DHT22;60000;51.030;7.024;2022-10-31T05:16:42;11.16;90.17
72128;DHT22;60000;51.030;7.024;2022-10-31T05:19:08;11.16;90.12
72128;DHT22;60000;51.030;7.024;2022-10-31T05:21:33;11.17;90.10
72128;DHT22;60000;51.030;7.024;2022-10-31T05:23:58;11.17;90.04
72128;DHT22;60000;51.030;7.024;2022-10-31T05:26:24;11.15;90.05
72128;DHT22;60000;51.030;7.024;2022-10-31T05:28:49;11.13;90.06
72128;DHT22;60000;51.030;7.024;2022-10-31T05:31:14;11.13;90.19
72128;DHT22;60000;51.030;7.024;2022-10-31T05:33:40;11.12;90.11
72128;DHT22;60000;51.030;7.024;2022-10-31T05:36:05;11.09;90.13
72128;DHT22;60000;51.030;7.024;2022-10-31T05:38:31;11.09;90.03
72128;DHT22;60000;51.030;7.024;2022-10-31T05:40:56;11.05;89.88
72128;DHT22;60000;51.030;7.024;2022-10-31T05:43:30;11.02;89.77
72128;DHT22;60000;51.030;7.024;2022-10-31T05:45:56;10.99;89.93
72128;DHT22;60000;51.030;7.024;2022-10-31T05:48:21;10.96;89.77
72128;DHT22;60000;51.030;7.024;2022-10-31T05:50:49;10.91;89.67
72128;DHT22;60000;51.030;7.024;2022-10-31T05:53:15;10.85;89.66
72128;DHT22;60000;51.030;7.024;2022-10-31T05:55:42;10.82;89.70
72128;DHT22;60000;51.030;7.024;2022-10-31T05:58:07;10.80;90.07
72128;DHT22;60000;51.030;7.024;2022-10-31T06:00:33;10.83;90.05
72128;DHT22;60000;51.030;7.024;2022-10-31T06:03:03;10.78;90.04
72128;DHT22;60000;51.030;7.024;2022-10-31T06:05:29;10.76;90.03
72128;DHT22;60000;51.030;7.024;2022-10-31T06:07:55;10.69;89.97
72128;DHT22;60000;51.030;7.024;2022-10-31T06:10:21;10.67;89.92
72128;DHT22;60000;51.030;7.024;2022-10-31T06:12:47;10.65;90.05
72128;DHT22;60000;51.030;7.024;2022-10-31T06:15:13;10.62;90.17
72128;DHT22;60000;51.030;7.024;2022-10-31T06:17:38;10.62;90.16
72128;DHT22;60000;51.030;7.024;2022-10-31T06:20:04;10.61;90.20
72128;DHT22;60000;51.030;7.024;2022-10-31T06:22:29;10.58;90.37
72128;DHT22;60000;51.030;7.024;2022-10-31T06:24:55;10.58;90.63
72128;DHT22;60000;51.030;7.024;2022-10-31T06:27:20;10.58;90.69
72128;DHT22;60000;51.030;7.024;2022-10-31T06:29:46;10.55;90.61
72128;DHT22;60000;51.030;7.024;2022-10-31T06:32:12;10.57;90.73
72128;DHT22;60000;51.030;7.024;2022-10-31T06:34:40;10.52;90.89
72128;DHT22;60000;51.030;7.024;2022-10-31T06:37:07;10.52;90.89
72128;DHT22;60000;51.030;7.024;2022-10-31T06:39:33;10.52;90.89
72128;DHT22;60000;51.030;7.024;2022-10-31T06:41:58;10.52;90.93
72128;DHT22;60000;51.030;7.024;2022-10-31T06:44:23;10.51;90.97
72128;DHT22;60000;51.030;7.024;2022-10-31T06:46:48;10.52;90.99
72128;DHT22;60000;51.030;7.024;2022-10-31T06:49:14;10.54;91.09
72128;DHT22;60000;51.030;7.024;2022-10-31T06:51:39;10.59;91.22
72128;DHT22;60000;51.030;7.024;2022-10-31T06:54:04;10.58;91.29
72128;DHT22;60000;51.030;7.024;2022-10-31T06:56:30;10.61;91.31
72128;DHT22;60000;51.030;7.024;2022-10-31T06:58:55;10.62;91.25
72128;DHT22;60000;51.030;7.024;2022-10-31T07:01:21;10.69;91.31
72128;DHT22;60000;51.030;7.024;2022-10-31T07:03:46;10.71;91.34
72128;DHT22;60000;51.030;7.024;2022-10-31T07:06:11;10.76;91.39
72128;DHT22;60000;51.030;7.024;2022-10-31T07:08:37;10.82;91.45
72128;DHT22;60000;51.030;7.024;2022-10-31T07:11:02;10.88;91.48
72128;DHT22;60000;51.030;7.024;2022-10-31T07:13:27;10.95;91.43
72128;DHT22;60000;51.030;7.024;2022-10-31T07:15:55;10.98;91.38
72128;DHT22;60000;51.030;7.024;2022-10-31T07:18:24;11.05;91.54
72128;DHT22;60000;51.030;7.024;2022-10-31T07:20:49;11.12;91.56
72128;DHT22;60000;51.030;7.024;2022-10-31T07:23:15;11.19;91.53
72128;DHT22;60000;51.030;7.024;2022-10-31T07:25:40;11.23;91.41
72128;DHT22;60000;51.030;7.024;2022-10-31T07:28:06;11.30;91.25
72128;DHT22;60000;51.030;7.024;2022-10-31T07:30:32;11.40;91.27
72128;DHT22;60000;51.030;7.024;2022-10-31T07:32:57;11.43;91.22
72128;DHT22;60000;51.030;7.024;2022-10-31T07:35:25;11.50;91.08
72128;DHT22;60000;51.030;7.024;2022-10-31T07:37:51;11.54;90.87
72128;DHT22;60000;51.030;7.024;2022-10-31T07:40:17;11.63;90.72
72128;DHT22;60000;51.030;7.024;2022-10-31T07:42:45;11.61;90.42
72128;DHT22;60000;51.030;7.024;2022-10-31T07:45:15;11.66;90.42
72128;DHT22;60000;51.030;7.024;2022-10-31T07:47:51;11.73;90.24
72128;DHT22;60000;51.030;7.024;2022-10-31T07:50:26;11.75;90.22
72128;DHT22;60000;51.030;7.024;2022-10-31T07:53:02;11.79;90.13
72128;DHT22;60000;51.030;7.024;2022-10-31T07:55:28;11.81;90.11
72128;DHT22;60000;51.030;7.024;2022-10-31T07:58:15;11.94;90.07
72128;DHT22;60000;51.030;7.024;2022-10-31T08:00:44;11.99;89.84
72128;DHT22;60000;51.030;7.024;2022-10-31T08:03:19;12.04;89.73
72128;DHT22;60000;51.030;7.024;2022-10-31T08:05:44;12.08;89.66
72128;DHT22;60000;51.030;7.024;2022-10-31T08:08:11;12.09;89.21
72128;DHT22;60000;51.030;7.024;2022-10-31T08:10:37;12.12;89.32
72128;DHT22;60000;51.030;7.024;2022-10-31T08:13:06;12.21;89.58
72128;DHT22;60000;51.030;7.024;2022-10-31T08:15:32;12.32;89.66
72128;DHT22;60000;51.030;7.024;2022-10-31T08:17:59;12.40;89.30
72128;DHT22;60000;51.030;7.024;2022-10-31T08:20:24;12.43;88.61
72128;DHT22;60000;51.030;7.024;2022-10-31T08:23:01;12.49;88.45
72128;DHT22;60000;51.030;7.024;2022-10-31T08:25:29;12.53;88.20
72128;DHT22;60000;51.030;7.024;2022-10-31T08:27:55;12.55;87.95
72128;DHT22;60000;51.030;7.024;2022-10-31T08:30:22;12.61;88.02
72128;DHT22;60000;51.030;7.024;2022-10-31T08:32:56;12.66;87.68
72128;DHT22;60000;51.030;7.024;2022-10-31T08:35:21;12.74;87.89
72128;DHT22;60000;51.030;7.024;2022-10-31T08:37:52;12.79;87.32
72128;DHT22;60000;51.030;7.024;2022-10-31T08:40:17;12.86;87.33
72128;DHT22;60000;51.030;7.024;2022-10-31T08:42:42;12.90;86.72
72128;DHT22;60000;51.030;7.024;2022-10-31T08:45:08;12.91;86.63
72128;DHT22;60000;51.030;7.024;2022-10-31T08:47:33;13.03;86.65
72128;DHT22;60000;51.030;7.024;2022-10-31T08:49:59;13.11;86.81
72128;DHT22;60000;51.030;7.024;2022-10-31T08:52:24;13.21;86.57
72128;DHT22;60000;51.030;7.024;2022-10-31T08:54:50;13.25;86.28
72128;DHT22;60000;51.030;7.024;2022-10-31T08:57:15;13.35;86.07
72128;DHT22;60000;51.030;7.024;2022-10-31T08:59:41;13.39;85.71
72128;DHT22;60000;51.030;7.024;2022-10-31T09:02:07;13.48;85.58
72128;DHT22;60000;51.030;7.024;2022-10-31T09:04:32;13.52;85.01
72128;DHT22;60000;51.030;7.024;2022-10-31T09:06:57;13.55;84.94
72128;DHT22;60000;51.030;7.024;2022-10-31T09:09:23;13.59;84.80
72128;DHT22;60000;51.030;7.024;2022-10-31T09:11:48;13.63;84.75
72128;DHT22;60000;51.030;7.024;2022-10-31T09:14:13;13.63;84.56
72128;DHT22;60000;51.030;7.024;2022-10-31T09:16:39;13.70;84.71
72128;DHT22;60000;51.030;7.024;2022-10-31T09:19:04;13.73;84.73
72128;DHT22;60000;51.030;7.024;2022-10-31T09:21:29;13.83;84.64
72128;DHT22;60000;51.030;7.024;2022-10-31T09:23:54;13.84;84.49
72128;DHT22;60000;51.030;7.024;2022-10-31T09:26:20;13.97;84.43
72128;DHT22;60000;51.030;7.024;2022-10-31T09:28:46;14.00;84.01
72128;DHT22;60000;51.030;7.024;2022-10-31T09:31:12;14.06;83.84
72128;DHT22;60000;51.030;7.024;2022-10-31T09:33:37;14.07;83.15
72128;DHT22;60000;51.030;7.024;2022-10-31T09:36:03;14.16;83.48
72128;DHT22;60000;51.030;7.024;2022-10-31T09:38:28;14.21;83.30
72128;DHT22;60000;51.030;7.024;2022-10-31T09:43:41;14.31;82.81
72128;DHT22;60000;51.030;7.024;2022-10-31T09:46:34;14.41;82.79
72128;DHT22;60000;51.030;7.024;2022-10-31T09:49:15;14.49;82.81
72128;DHT22;60000;51.030;7.024;2022-10-31T09:51:45;14.60;82.58
72128;DHT22;60000;51.030;7.024;2022-10-31T09:54:21;14.73;82.52
72128;DHT22;60000;51.030;7.024;2022-10-31T09:56:51;14.91;82.29
72128;DHT22;60000;51.030;7.024;2022-10-31T09:59:33;15.23;82.94
72128;DHT22;60000;51.030;7.024;2022-10-31T10:04:59;15.88;80.95
72128;DHT22;60000;51.030;7.024;2022-10-31T10:10:00;16.36;78.13
72128;DHT22;60000;51.030;7.024;2022-10-31T10:12:40;16.66;77.95
72128;DHT22;60000;51.030;7.024;2022-10-31T10:18:17;17.27;75.56
72128;DHT22;60000;51.030;7.024;2022-10-31T10:21:03;17.56;75.06
72128;DHT22;60000;51.030;7.024;2022-10-31T10:26:20;18.10;72.79
72128;DHT22;60000;51.030;7.024;2022-10-31T10:28:53;18.28;70.99
72128;DHT22;60000;51.030;7.024;2022-10-31T10:31:23;18.43;70.02
72128;DHT22;60000;51.030;7.024;2022-10-31T10:34:00;18.65;69.08
72128;DHT22;60000;51.030;7.024;2022-10-31T10:36:40;18.84;68.15
72128;DHT22;60000;51.030;7.024;2022-10-31T10:39:16;19.02;68.29
72128;DHT22;60000;51.030;7.024;2022-10-31T10:41:47;19.03;67.54
72128;DHT22;60000;51.030;7.024;2022-10-31T10:44:34;19.12;67.13
72128;DHT22;60000;51.030;7.024;2022-10-31T10:47:21;19.17;66.89
72128;DHT22;60000;51.030;7.024;2022-10-31T10:50:17;19.22;66.47
72128;DHT22;60000;51.030;7.024;2022-10-31T10:53:06;19.31;66.02
72128;DHT22;60000;51.030;7.024;2022-10-31T10:55:48;19.37;65.23
72128;DHT22;60000;51.030;7.024;2022-10-31T10:58:15;19.41;65.06
72128;DHT22;60000;51.030;7.024;2022-10-31T11:00:42;19.40;63.77
72128;DHT22;60000;51.030;7.024;2022-10-31T11:03:11;19.38;64.56
72128;DHT22;60000;51.030;7.024;2022-10-31T11:08:35;19.28;64.00
72128;DHT22;60000;51.030;7.024;2022-10-31T11:11:02;19.27;64.15
72128;DHT22;60000;51.030;7.024;2022-10-31T11:13:29;19.28;64.13
72128;DHT22;60000;51.030;7.024;2022-10-31T11:16:02;19.26;64.51
72128;DHT22;60000;51.030;7.024;2022-10-31T11:18:30;19.26;64.51
72128;DHT22;60000;51.030;7.024;2022-10-31T11:20:59;19.24;64.22
72128;DHT22;60000;51.030;7.024;2022-10-31T11:23:27;19.23;64.68
72128;DHT22;60000;51.030;7.024;2022-10-31T11:25:56;19.23;63.94
72128;DHT22;60000;51.030;7.024;2022-10-31T11:28:22;19.28;64.23
72128;DHT22;60000;51.030;7.024;2022-10-31T11:30:51;19.33;63.94
72128;DHT22;60000;51.030;7.024;2022-10-31T11:33:35;19.37;63.52
72128;DHT22;60000;51.030;7.024;2022-10-31T11:36:13;19.44;63.20
72128;DHT22;60000;51.030;7.024;2022-10-31T11:38:43;19.46;63.08
72128;DHT22;60000;51.030;7.024;2022-10-31T11:41:15;19.49;62.50
72128;DHT22;60000;51.030;7.024;2022-10-31T11:43:49;19.47;62.30
72128;DHT22;60000;51.030;7.024;2022-10-31T11:46:32;19.41;62.78
72128;DHT22;60000;51.030;7.024;2022-10-31T11:48:58;19.40;62.56
72128;DHT22;60000;51.030;7.024;2022-10-31T11:51:28;19.37;62.77
72128;DHT22;60000;51.030;7.024;2022-10-31T11:53:57;19.37;62.72
72128;DHT22;60000;51.030;7.024;2022-10-31T11:56:23;19.38;63.28
72128;DHT22;60000;51.030;7.024;2022-10-31T11:59:02;19.46;63.34
72128;DHT22;60000;51.030;7.024;2022-10-31T12:01:29;19.43;62.92
72128;DHT22;60000;51.030;7.024;2022-10-31T12:04:10;19.49;63.31
72128;DHT22;60000;51.030;7.024;2022-10-31T12:06:41;19.50;62.74
72128;DHT22;60000;51.030;7.024;2022-10-31T12:11:52;19.60;62.66
72128;DHT22;60000;51.030;7.024;2022-10-31T12:17:14;19.70;61.11
72128;DHT22;60000;51.030;7.024;2022-10-31T12:20:11;19.73;60.63
72128;DHT22;60000;51.030;7.024;2022-10-31T12:23:11;19.73;60.22
72128;DHT22;60000;51.030;7.024;2022-10-31T12:28:50;19.75;60.51
72128;DHT22;60000;51.030;7.024;2022-10-31T12:34:14;19.73;60.71
72128;DHT22;60000;51.030;7.024;2022-10-31T12:37:00;19.74;60.13
72128;DHT22;60000;51.030;7.024;2022-10-31T12:40:06;19.74;60.87
72128;DHT22;60000;51.030;7.024;2022-10-31T12:58:16;19.81;60.56
72128;DHT22;60000;51.030;7.024;2022-10-31T13:00:44;19.75;59.95
72128;DHT22;60000;51.030;7.024;2022-10-31T13:03:31;19.79;59.83
72128;DHT22;60000;51.030;7.024;2022-10-31T13:06:08;19.78;60.31
72128;DHT22;60000;51.030;7.024;2022-10-31T13:08:45;19.77;60.07
72128;DHT22;60000;51.030;7.024;2022-10-31T13:11:16;19.77;59.74
72128;DHT22;60000;51.030;7.024;2022-10-31T13:16:45;19.73;60.05
72128;DHT22;60000;51.030;7.024;2022-10-31T13:19:18;19.73;60.01
72128;DHT22;60000;51.030;7.024;2022-10-31T13:22:06;19.74;60.39
72128;DHT22;60000;51.030;7.024;2022-10-31T13:24:54;19.77;60.82
72128;DHT22;60000;51.030;7.024;2022-10-31T13:27:26;19.82;60.78
72128;DHT22;60000;51.030;7.024;2022-10-31T13:30:04;19.79;60.54
72128;DHT22;60000;51.030;7.024;2022-10-31T13:32:43;19.86;60.44
72128;DHT22;60000;51.030;7.024;2022-10-31T13:41:17;19.91;60.52
72128;DHT22;60000;51.030;7.024;2022-10-31T13:44:00;19.91;59.95
72128;DHT22;60000;51.030;7.024;2022-10-31T13:48:58;19.88;59.99
72128;DHT22;60000;51.030;7.024;2022-10-31T13:51:26;19.82;59.96
72128;DHT22;60000;51.030;7.024;2022-10-31T13:54:05;19.79;59.69
72128;DHT22;60000;51.030;7.024;2022-10-31T13:56:33;19.77;59.79
72128;DHT22;60000;51.030;7.024;2022-10-31T13:59:17;19.78;59.86
72128;DHT22;60000;51.030;7.024;2022-10-31T14:01:49;19.74;60.13
72128;DHT22;60000;51.030;7.024;2022-10-31T14:04:18;19.68;60.39
72128;DHT22;60000;51.030;7.024;2022-10-31T14:11:50;19.60;60.41
72128;DHT22;60000;51.030;7.024;2022-10-31T14:14:17;19.58;60.59
72128;DHT22;60000;51.030;7.024;2022-10-31T14:16:44;19.57;60.77
72128;DHT22;60000;51.030;7.024;2022-10-31T14:19:18;19.54;60.87
72128;DHT22;60000;51.030;7.024;2022-10-31T14:21:46;19.51;61.07
72128;DHT22;60000;51.030;7.024;2022-10-31T14:26:57;19.43;61.48
72128;DHT22;60000;51.030;7.024;2022-10-31T14:29:26;19.44;61.27
72128;DHT22;60000;51.030;7.024;2022-10-31T14:32:01;19.43;61.36
72128;DHT22;60000;51.030;7.024;2022-10-31T14:34:28;19.40;61.59
72128;DHT22;60000;51.030;7.024;2022-10-31T14:42:35;19.34;61.97
72128;DHT22;60000;51.030;7.024;2022-10-31T14:50:23;19.33;61.61
72128;DHT22;60000;51.030;7.024;2022-10-31T14:52:55;19.36;61.79
72128;DHT22;60000;51.030;7.024;2022-10-31T14:55:21;19.33;61.65
72128;DHT22;60000;51.030;7.024;2022-10-31T14:57:54;19.37;61.63
72128;DHT22;60000;51.030;7.024;2022-10-31T15:00:22;19.34;61.53
72128;DHT22;60000;51.030;7.024;2022-10-31T15:05:23;19.34;61.51
72128;DHT22;60000;51.030;7.024;2022-10-31T15:07:54;19.36;61.58
72128;DHT22;60000;51.030;7.024;2022-10-31T15:10:31;19.31;61.22
72128;DHT22;60000;51.030;7.024;2022-10-31T15:13:18;19.30;61.61
72128;DHT22;60000;51.030;7.024;2022-10-31T15:15:44;19.27;61.36
72128;DHT22;60000;51.030;7.024;2022-10-31T15:18:16;19.23;61.31
72128;DHT22;60000;51.030;7.024;2022-10-31T15:20:43;19.19;61.47
72128;DHT22;60000;51.030;7.024;2022-10-31T15:23:32;19.15;61.34
72128;DHT22;60000;51.030;7.024;2022-10-31T15:26:01;19.15;61.14
72128;DHT22;60000;51.030;7.024;2022-10-31T15:28:27;19.15;60.97
72128;DHT22;60000;51.030;7.024;2022-10-31T15:30:55;19.17;60.37
72128;DHT22;60000;51.030;7.024;2022-10-31T15:33:24;19.10;60.25
72128;DHT22;60000;51.030;7.024;2022-10-31T15:36:00;19.03;60.31
72128;DHT22;60000;51.030;7.024;2022-10-31T15:38:27;18.98;60.02
72128;DHT22;60000;51.030;7.024;2022-10-31T15:41:02;18.94;59.80
72128;DHT22;60000;51.030;7.024;2022-10-31T15:43:33;18.94;59.80
72128;DHT22;60000;51.030;7.024;2022-10-31T15:46:00;18.84;59.95
72128;DHT22;60000;51.030;7.024;2022-10-31T15:48:26;18.78;59.95
72128;DHT22;60000;51.030;7.024;2022-10-31T15:50:54;18.72;59.89
72128;DHT22;60000;51.030;7.024;2022-10-31T15:53:35;18.65;60.10
72128;DHT22;60000;51.030;7.024;2022-10-31T15:56:04;18.59;60.13
72128;DHT22;60000;51.030;7.024;2022-10-31T15:58:40;18.55;60.18
72128;DHT22;60000;51.030;7.024;2022-10-31T16:01:20;18.48;60.35
72128;DHT22;60000;51.030;7.024;2022-10-31T16:06:38;18.36;60.44
72128;DHT22;60000;51.030;7.024;2022-10-31T16:09:20;18.28;60.53
72128;DHT22;60000;51.030;7.024;2022-10-31T16:11:46;18.18;60.84
72128;DHT22;60000;51.030;7.024;2022-10-31T16:16:42;18.10;61.16
72128;DHT22;60000;51.030;7.024;2022-10-31T16:19:18;18.01;61.38
72128;DHT22;60000;51.030;7.024;2022-10-31T16:21:45;17.96;61.57
72128;DHT22;60000;51.030;7.024;2022-10-31T16:24:20;17.94;61.63
72128;DHT22;60000;51.030;7.024;2022-10-31T16:26:50;17.90;61.71
72128;DHT22;60000;51.030;7.024;2022-10-31T16:29:37;17.89;61.70
72128;DHT22;60000;51.030;7.024;2022-10-31T16:32:03;17.86;61.83
72128;DHT22;60000;51.030;7.024;2022-10-31T16:34:29;17.86;61.87
72128;DHT22;60000;51.030;7.024;2022-10-31T16:36:54;17.79;62.09
72128;DHT22;60000;51.030;7.024;2022-10-31T16:39:20;17.75;62.12
72128;DHT22;60000;51.030;7.024;2022-10-31T16:41:48;17.72;62.23
72128;DHT22;60000;51.030;7.024;2022-10-31T16:44:19;17.68;62.44
72128;DHT22;60000;51.030;7.024;2022-10-31T16:46:46;17.61;62.69
72128;DHT22;60000;51.030;7.024;2022-10-31T16:49:11;17.58;62.69
72128;DHT22;60000;51.030;7.024;2022-10-31T16:51:37;17.53;62.80
72128;DHT22;60000;51.030;7.024;2022-10-31T16:54:02;17.52;62.86
72128;DHT22;60000;51.030;7.024;2022-10-31T16:56:31;17.49;63.03
72128;DHT22;60000;51.030;7.024;2022-10-31T16:58:58;17.45;63.21
72128;DHT22;60000;51.030;7.024;2022-10-31T17:01:24;17.40;63.29
72128;DHT22;60000;51.030;7.024;2022-10-31T17:03:49;17.43;63.32
72128;DHT22;60000;51.030;7.024;2022-10-31T17:06:15;17.40;63.38
72128;DHT22;60000;51.030;7.024;2022-10-31T17:08:40;17.40;63.30
72128;DHT22;60000;51.030;7.024;2022-10-31T17:11:12;17.39;63.44
72128;DHT22;60000;51.030;7.024;2022-10-31T17:13:38;17.32;63.44
72128;DHT22;60000;51.030;7.024;2022-10-31T17:16:04;17.36;63.46
72128;DHT22;60000;51.030;7.024;2022-10-31T17:18:30;17.38;63.31
72128;DHT22;60000;51.030;7.024;2022-10-31T17:21:00;17.35;63.41
72128;DHT22;60000;51.030;7.024;2022-10-31T17:23:26;17.36;63.43
72128;DHT22;60000;51.030;7.024;2022-10-31T17:25:52;17.35;63.36